Time;durP1;ratioP1;P1;durP2;ratioP2;P2;SDS_P1;SDS_P2;PMS_P1;PMS_P2;Temp;Humidity;BMP_temperature;BMP_pressure;BME280_temperature;BME280_humidity;BME280_pressure;Samples;Min_cycle;Max_cycle;Signal;HPM_P1;HPM_P2
2022/08/29 00:00:35;;;;;;;10.97;9.97;;;17.00;99.90;;;;;;4977201;28;20320;-87
2022/08/29 00:03:01;;;;;;;10.30;9.40;;;16.90;99.90;;;;;;4983437;28;21196;-87
2022/08/29 00:05:32;;;;;;;10.10;9.27;;;16.80;99.90;;;;;;4955753;28;21710;-87
2022/08/29 00:08:33;;;;;;;10.40;9.50;;;16.80;99.90;;;;;;4961308;28;20449;-88
2022/08/29 00:11:34;;;;;;;10.60;9.77;;;16.80;99.90;;;;;;4961020;28;20512;-88
2022/08/29 00:14:05;;;;;;;11.00;10.10;;;16.70;99.90;;;;;;4965396;28;20449;-88
2022/08/29 00:16:31;;;;;;;11.57;10.67;;;16.60;99.90;;;;;;4960892;28;20444;-89
2022/08/29 00:18:57;;;;;;;11.23;10.23;;;16.60;99.90;;;;;;4958702;28;20433;-88
2022/08/29 00:21:33;;;;;;;12.60;11.50;;;16.60;99.90;;;;;;4962512;28;21029;-87
2022/08/29 00:23:59;;;;;;;11.20;10.30;;;16.50;99.90;;;;;;4971371;28;20436;-88
2022/08/29 00:26:24;;;;;;;11.07;10.10;;;16.40;99.90;;;;;;4966718;28;20178;-87
2022/08/29 00:29:00;;;;;;;11.50;10.47;;;16.40;99.90;;;;;;4974855;28;20272;-88
2022/08/29 00:31:37;;;;;;;12.37;11.17;;;16.40;99.90;;;;;;4973002;28;21226;-88
2022/08/29 00:34:04;;;;;;;11.27;10.27;;;16.30;99.90;;;;;;4959007;28;20447;-87
2022/08/29 00:36:30;;;;;;;12.07;10.80;;;16.30;99.90;;;;;;4959095;28;20451;-86
2022/08/29 00:38:55;;;;;;;12.60;11.30;;;16.30;99.90;;;;;;4954133;28;20962;-86
2022/08/29 00:41:21;;;;;;;11.63;10.37;;;16.20;99.90;;;;;;4962192;28;20185;-87
2022/08/29 00:43:48;;;;;;;12.63;11.53;;;16.20;99.90;;;;;;4966049;28;20190;-87
2022/08/29 00:46:39;;;;;;;15.83;10.97;;;16.30;99.90;;;;;;4963845;28;20181;-87
2022/08/29 00:49:12;;;;;;;13.10;11.90;;;16.40;99.90;;;;;;4960611;28;20480;-86
2022/08/29 00:51:46;;;;;;;12.37;11.27;;;16.50;99.90;;;;;;4964255;28;20665;-89
2022/08/29 00:54:15;;;;;;;13.00;11.90;;;16.50;99.90;;;;;;4961199;28;20473;-87
2022/08/29 00:56:42;;;;;;;13.03;11.63;;;16.60;99.90;;;;;;4967752;28;20987;-87
2022/08/29 00:59:33;;;;;;;14.70;12.33;;;16.60;99.90;;;;;;4972458;28;20202;-88
2022/08/29 01:01:59;;;;;;;13.63;11.57;;;16.70;99.90;;;;;;4967379;28;20429;-88
2022/08/29 01:04:26;;;;;;;11.33;10.33;;;16.70;99.90;;;;;;4964154;28;20822;-88
2022/08/29 01:07:00;;;;;;;12.53;11.27;;;16.80;99.90;;;;;;4962063;28;20433;-88
2022/08/29 01:09:40;;;;;;;13.97;12.70;;;16.80;99.90;;;;;;4961350;28;20476;-88
2022/08/29 01:12:16;;;;;;;11.80;10.80;;;16.80;99.90;;;;;;4979191;28;20477;-87
2022/08/29 01:14:54;;;;;;;13.37;12.20;;;16.80;99.90;;;;;;4975081;28;20497;-88
2022/08/29 01:17:29;;;;;;;13.90;12.40;;;16.80;99.90;;;;;;4962309;28;20447;-88
2022/08/29 01:19:58;;;;;;;15.70;11.97;;;16.80;99.90;;;;;;4956379;28;20441;-87
2022/08/29 01:22:42;;;;;;;13.30;12.17;;;16.80;99.90;;;;;;4960662;28;20444;-88
2022/08/29 01:25:13;;;;;;;13.13;12.03;;;16.80;99.90;;;;;;4957032;28;20597;-88
2022/08/29 01:27:43;;;;;;;12.17;11.17;;;16.70;99.90;;;;;;4973476;28;20444;-88
2022/08/29 01:30:10;;;;;;;12.83;11.73;;;16.80;99.90;;;;;;4975978;28;20452;-88
2022/08/29 01:32:36;;;;;;;11.53;10.43;;;16.80;99.90;;;;;;4991041;28;20568;-88
2022/08/29 01:35:02;;;;;;;11.60;10.50;;;16.70;99.90;;;;;;4944522;28;21932;-88
2022/08/29 01:37:31;;;;;;;11.80;10.80;;;16.50;99.90;;;;;;4976910;28;20193;-87
2022/08/29 01:39:58;;;;;;;12.80;11.60;;;16.40;99.90;;;;;;4957093;28;20492;-88
2022/08/29 01:42:24;;;;;;;12.37;11.37;;;16.20;99.90;;;;;;4960017;28;20862;-87
2022/08/29 01:44:55;;;;;;;12.57;11.43;;;16.10;99.90;;;;;;4953066;28;20483;-87
2022/08/29 01:47:39;;;;;;;12.67;11.43;;;16.10;99.90;;;;;;4975690;28;20193;-88
2022/08/29 01:50:11;;;;;;;14.53;13.23;;;16.00;99.90;;;;;;4960013;28;20971;-87
2022/08/29 01:52:37;;;;;;;15.23;11.53;;;15.90;99.90;;;;;;4974457;28;21167;-87
2022/08/29 01:55:59;;;;;;;13.40;12.00;;;15.80;99.90;;;;;;4957509;28;20476;-87
2022/08/29 01:58:40;;;;;;;12.47;11.27;;;15.90;99.90;;;;;;4980936;28;20761;-87
2022/08/29 02:01:07;;;;;;;14.50;13.20;;;16.00;99.90;;;;;;4959934;28;20444;-87
2022/08/29 02:03:35;;;;;;;13.77;12.50;;;15.90;99.90;;;;;;4970458;28;20763;-88
2022/08/29 02:06:02;;;;;;;13.70;12.40;;;15.90;99.90;;;;;;4981673;28;20441;-87
2022/08/29 02:08:29;;;;;;;13.53;12.20;;;16.00;99.90;;;;;;4969804;28;20479;-89
2022/08/29 02:10:55;;;;;;;12.80;11.60;;;16.00;99.90;;;;;;4990293;28;21928;-88
2022/08/29 02:13:29;;;;;;;12.07;10.80;;;16.00;99.90;;;;;;4976920;28;20798;-88
2022/08/29 02:15:58;;;;;;;11.47;10.37;;;16.00;99.90;;;;;;4971777;28;20298;-88
2022/08/29 02:18:24;;;;;;;11.47;10.47;;;15.90;99.90;;;;;;4965184;28;20455;-87
2022/08/29 02:20:49;;;;;;;12.63;11.40;;;15.90;99.90;;;;;;4957121;28;21088;-87
2022/08/29 02:23:15;;;;;;;13.13;11.83;;;15.80;99.90;;;;;;4975650;28;20244;-87
2022/08/29 02:25:46;;;;;;;12.20;11.07;;;15.80;99.90;;;;;;4954521;28;20212;-87
2022/08/29 02:28:14;;;;;;;11.50;10.40;;;15.80;99.90;;;;;;4971174;28;20988;-86
2022/08/29 02:30:47;;;;;;;13.07;11.87;;;15.70;99.90;;;;;;4974954;28;20451;-86
2022/08/29 02:33:15;;;;;;;12.90;11.53;;;15.70;99.90;;;;;;4991477;28;20657;-87
2022/08/29 02:35:43;;;;;;;11.97;10.80;;;15.70;99.90;;;;;;4961296;28;20819;-87
2022/08/29 02:38:10;;;;;;;12.50;11.30;;;15.70;99.90;;;;;;4964007;28;20539;-88
2022/08/29 02:40:49;;;;;;;11.77;10.67;;;15.70;99.90;;;;;;4936105;28;20457;-89
2022/08/29 02:43:16;;;;;;;12.97;11.87;;;15.70;99.90;;;;;;4952724;28;20453;-90
2022/08/29 02:45:43;;;;;;;12.50;11.07;;;15.70;99.90;;;;;;4963863;28;20516;-89
2022/08/29 02:48:10;;;;;;;13.13;11.83;;;15.60;99.90;;;;;;4957506;28;20441;-88
2022/08/29 02:50:44;;;;;;;12.93;11.53;;;15.60;99.90;;;;;;4959128;28;21045;-88
2022/08/29 02:53:10;;;;;;;15.17;11.90;;;15.50;99.90;;;;;;4956493;28;20460;-87
2022/08/29 02:55:38;;;;;;;13.53;11.93;;;15.30;99.90;;;;;;4952570;28;20449;-88
2022/08/29 02:58:05;;;;;;;11.97;10.60;;;15.20;99.90;;;;;;4960642;28;20441;-88
2022/08/29 03:00:32;;;;;;;15.17;10.80;;;15.20;99.90;;;;;;4978594;28;20437;-88
2022/08/29 03:03:09;;;;;;;12.67;10.90;;;15.20;99.90;;;;;;4974526;28;20499;-88
2022/08/29 03:06:11;;;;;;;10.43;9.27;;;15.40;99.90;;;;;;4965500;28;20543;-88
2022/08/29 03:08:48;;;;;;;11.47;10.30;;;15.30;99.90;;;;;;4960446;28;20444;-89
2022/08/29 03:11:22;;;;;;;11.00;9.90;;;15.30;99.90;;;;;;4951138;28;20472;-89
2022/08/29 03:13:47;;;;;;;12.40;10.60;;;15.40;99.90;;;;;;4946387;28;20824;-88
2022/08/29 03:16:13;;;;;;;11.90;10.90;;;15.40;99.90;;;;;;4959128;28;20432;-88
2022/08/29 03:18:39;;;;;;;11.40;10.30;;;15.30;99.90;;;;;;4958463;28;20644;-88
2022/08/29 03:21:12;;;;;;;10.93;9.93;;;15.20;99.90;;;;;;4960409;28;20186;-88
2022/08/29 03:23:54;;;;;;;11.27;10.27;;;15.20;99.90;;;;;;4961246;28;24714;-88
2022/08/29 03:26:23;;;;;;;12.13;11.03;;;15.30;99.90;;;;;;4961301;28;20554;-88
2022/08/29 03:29:16;;;;;;;12.00;10.87;;;15.50;99.90;;;;;;4963260;28;20440;-88
2022/08/29 03:31:47;;;;;;;12.37;10.50;;;15.50;99.90;;;;;;4978597;28;20523;-89
2022/08/29 03:34:13;;;;;;;11.07;10.07;;;15.30;99.90;;;;;;4981940;28;20522;-88
2022/08/29 03:36:40;;;;;;;11.03;9.93;;;15.40;99.90;;;;;;4961143;28;20951;-89
2022/08/29 03:39:05;;;;;;;11.73;10.53;;;15.40;99.90;;;;;;4963854;28;20950;-88
2022/08/29 03:41:31;;;;;;;11.40;10.40;;;15.30;99.90;;;;;;4962687;28;20692;-88
2022/08/29 03:43:58;;;;;;;10.83;9.93;;;15.40;99.90;;;;;;4966261;28;20436;-88
2022/08/29 03:46:25;;;;;;;11.67;10.30;;;15.20;99.90;;;;;;4969850;28;20190;-88
2022/08/29 03:48:51;;;;;;;10.73;9.83;;;15.10;99.90;;;;;;4966655;28;20436;-88
2022/08/29 03:51:16;;;;;;;11.13;10.13;;;14.90;99.90;;;;;;4962452;28;21216;-89
2022/08/29 03:53:44;;;;;;;11.37;10.33;;;15.00;99.90;;;;;;4966916;28;20797;-88
2022/08/29 03:56:12;;;;;;;11.70;10.70;;;15.00;99.90;;;;;;4970018;28;21017;-89
2022/08/29 03:58:38;;;;;;;12.40;11.30;;;14.90;99.90;;;;;;4962840;28;20453;-88
2022/08/29 04:01:04;;;;;;;14.47;10.87;;;14.80;99.90;;;;;;4969581;28;20507;-89
2022/08/29 04:03:30;;;;;;;12.30;10.97;;;14.80;99.90;;;;;;4976275;28;20205;-87
2022/08/29 04:05:55;;;;;;;14.33;10.80;;;14.80;99.90;;;;;;4968474;28;20468;-88
2022/08/29 04:08:25;;;;;;;13.80;10.97;;;14.80;99.90;;;;;;4962431;28;20197;-89
2022/08/29 04:10:52;;;;;;;11.33;10.23;;;14.80;99.90;;;;;;4957130;28;20671;-88
2022/08/29 04:13:33;;;;;;;11.00;9.80;;;14.70;99.90;;;;;;4963285;28;20463;-88
2022/08/29 04:16:11;;;;;;;11.57;10.40;;;14.70;99.90;;;;;;4975864;28;20452;-88
2022/08/29 04:18:42;;;;;;;10.80;9.90;;;14.80;99.90;;;;;;4951566;28;20456;-88
2022/08/29 04:21:10;;;;;;;11.53;10.33;;;14.80;99.90;;;;;;4952138;28;20449;-89
2022/08/29 04:23:38;;;;;;;10.93;9.83;;;14.90;99.90;;;;;;4961441;28;20994;-88
2022/08/29 04:26:04;;;;;;;11.97;10.57;;;14.70;99.90;;;;;;4972578;28;20606;-88
2022/08/29 04:28:56;;;;;;;11.87;10.77;;;14.60;99.90;;;;;;4961188;28;20449;-88
2022/08/29 04:31:40;;;;;;;11.70;10.60;;;14.40;99.90;;;;;;4960483;28;22128;-89
2022/08/29 04:34:19;;;;;;;11.93;10.63;;;14.90;99.90;;;;;;4975903;28;20456;-90
2022/08/29 04:36:48;;;;;;;11.20;10.17;;;14.50;99.90;;;;;;4974477;28;20450;-89
2022/08/29 04:39:14;;;;;;;13.00;11.90;;;15.20;99.90;;;;;;4965488;28;20441;-88
2022/08/29 04:41:41;;;;;;;12.43;11.23;;;14.40;99.90;;;;;;4948818;28;20190;-87
2022/08/29 04:44:09;;;;;;;13.10;11.90;;;14.40;99.90;;;;;;4960225;28;20885;-87
2022/08/29 04:46:34;;;;;;;12.70;11.43;;;14.30;99.90;;;;;;4956929;28;20459;-87
2022/08/29 04:49:00;;;;;;;13.43;12.23;;;14.40;99.90;;;;;;4958093;28;20440;-87
2022/08/29 04:51:26;;;;;;;11.60;10.50;;;14.50;99.90;;;;;;4951517;28;24284;-87
2022/08/29 04:53:52;;;;;;;11.43;10.43;;;14.40;99.90;;;;;;4970310;28;20793;-86
2022/08/29 04:56:18;;;;;;;10.10;9.20;;;14.50;99.90;;;;;;4958194;28;20193;-88
2022/08/29 04:58:44;;;;;;;11.07;10.10;;;14.30;99.90;;;;;;4954109;28;20173;-87
2022/08/29 05:01:19;;;;;;;10.87;9.97;;;14.30;99.90;;;;;;4969993;28;21226;-87
2022/08/29 05:03:44;;;;;;;11.60;10.40;;;14.30;99.90;;;;;;4980823;28;20260;-88
2022/08/29 05:06:12;;;;;;;11.00;9.90;;;14.40;99.90;;;;;;4963406;28;20452;-87
2022/08/29 05:08:41;;;;;;;11.80;10.80;;;14.50;99.90;;;;;;4960358;28;21046;-85
2022/08/29 05:11:10;;;;;;;11.50;10.50;;;14.60;99.90;;;;;;4971282;28;20472;-87
2022/08/29 05:13:36;;;;;;;12.07;11.07;;;14.60;99.90;;;;;;4964621;28;20828;-87
2022/08/29 05:16:06;;;;;;;12.00;10.77;;;14.60;99.90;;;;;;4961858;28;20456;-86
2022/08/29 05:18:32;;;;;;;10.83;9.90;;;14.60;99.90;;;;;;4954074;28;20281;-86
2022/08/29 05:20:57;;;;;;;10.10;9.30;;;14.60;99.90;;;;;;4957878;28;20986;-86
2022/08/29 05:23:23;;;;;;;9.90;9.00;;;14.50;99.90;;;;;;4976684;28;21364;-87
2022/08/29 05:25:57;;;;;;;10.13;9.13;;;14.60;99.90;;;;;;4961240;28;20181;-86
2022/08/29 05:28:23;;;;;;;10.90;9.90;;;14.70;99.90;;;;;;4950144;28;20625;-87
2022/08/29 05:30:54;;;;;;;10.47;9.57;;;14.80;99.90;;;;;;4958990;28;21044;-88
2022/08/29 05:33:20;;;;;;;11.10;10.00;;;15.00;99.90;;;;;;4966365;28;20197;-88
2022/08/29 05:35:46;;;;;;;11.40;10.40;;;14.90;99.90;;;;;;4968753;28;20963;-87
2022/08/29 05:38:17;;;;;;;11.03;9.93;;;15.00;99.90;;;;;;4959043;28;21140;-87
2022/08/29 05:40:42;;;;;;;10.90;10.00;;;15.10;99.90;;;;;;4960463;28;20433;-87
2022/08/29 05:43:09;;;;;;;10.57;9.67;;;15.10;99.90;;;;;;4958564;28;20197;-88
2022/08/29 05:45:36;;;;;;;11.40;10.40;;;15.20;99.90;;;;;;4966801;28;20200;-87
2022/08/29 05:48:23;;;;;;;12.07;11.07;;;15.30;99.90;;;;;;4979425;28;20445;-88
2022/08/29 05:50:48;;;;;;;11.07;10.17;;;15.40;99.90;;;;;;4964584;28;21052;-87
2022/08/29 05:53:17;;;;;;;11.80;10.70;;;15.50;99.90;;;;;;4965918;28;20441;-88
2022/08/29 05:55:43;;;;;;;11.87;10.77;;;15.50;99.90;;;;;;4977109;28;20192;-87
2022/08/29 05:58:10;;;;;;;12.37;11.07;;;15.60;99.90;;;;;;4977533;28;20459;-87
2022/08/29 06:00:41;;;;;;;13.00;11.80;;;15.70;99.90;;;;;;4958394;28;20452;-87
2022/08/29 06:03:06;;;;;;;14.20;12.90;;;15.80;99.90;;;;;;4972127;28;20546;-87
2022/08/29 06:05:32;;;;;;;12.80;11.60;;;15.90;99.90;;;;;;4985650;28;20519;-87
2022/08/29 06:07:58;;;;;;;13.50;12.27;;;16.00;99.90;;;;;;4958556;28;20205;-86
2022/08/29 06:10:24;;;;;;;14.37;12.90;;;16.20;99.90;;;;;;4956480;28;20190;-88
2022/08/29 06:12:51;;;;;;;14.53;13.23;;;16.30;99.90;;;;;;4957131;28;22153;-86
2022/08/29 06:15:16;;;;;;;16.10;14.50;;;16.50;99.90;;;;;;4962774;28;20189;-85
2022/08/29 06:17:42;;;;;;;14.70;13.20;;;16.60;99.90;;;;;;4964726;28;20496;-87
2022/08/29 06:20:08;;;;;;;15.07;13.60;;;16.60;99.90;;;;;;4964601;28;20247;-87
2022/08/29 06:22:35;;;;;;;13.93;12.63;;;16.90;99.90;;;;;;4959506;28;20683;-87
2022/08/29 06:25:01;;;;;;;14.33;13.03;;;16.90;99.90;;;;;;4960983;28;20437;-87
2022/08/29 06:27:27;;;;;;;16.13;13.87;;;17.00;99.90;;;;;;4957462;28;20535;-86
2022/08/29 06:29:52;;;;;;;14.50;13.00;;;17.00;99.90;;;;;;4963432;28;20661;-87
2022/08/29 06:32:18;;;;;;;15.20;13.80;;;17.10;99.90;;;;;;4965841;28;20612;-86
2022/08/29 06:34:43;;;;;;;15.60;13.67;;;17.10;99.90;;;;;;4968511;28;20213;-87
2022/08/29 06:37:09;;;;;;;14.93;13.30;;;17.00;99.90;;;;;;4973243;28;20197;-86
2022/08/29 06:39:35;;;;;;;17.23;15.20;;;17.10;99.90;;;;;;4959673;28;20269;-87
2022/08/29 06:42:00;;;;;;;16.40;14.87;;;17.20;99.90;;;;;;4956176;28;20185;-87
2022/08/29 06:44:26;;;;;;;15.77;14.13;;;17.30;99.90;;;;;;4959589;28;20178;-87
2022/08/29 06:46:52;;;;;;;15.57;14.17;;;17.50;99.90;;;;;;4962599;28;21096;-87
2022/08/29 06:49:19;;;;;;;14.83;13.33;;;17.70;99.90;;;;;;4976550;28;20511;-86
2022/08/29 06:51:48;;;;;;;14.57;13.27;;;17.80;99.90;;;;;;4968953;28;20253;-86
2022/08/29 06:54:15;;;;;;;15.30;13.80;;;17.80;99.90;;;;;;4962567;28;20449;-86
2022/08/29 06:56:41;;;;;;;15.20;13.80;;;17.90;99.90;;;;;;4979464;28;20458;-86
2022/08/29 06:59:07;;;;;;;14.10;12.80;;;18.00;99.90;;;;;;4963842;28;20437;-87
2022/08/29 07:01:33;;;;;;;15.23;13.83;;;18.10;99.90;;;;;;4965023;28;20958;-87
2022/08/29 07:03:59;;;;;;;15.97;14.30;;;18.10;99.90;;;;;;4988064;28;20189;-87
2022/08/29 07:06:25;;;;;;;15.37;14.03;;;18.10;99.90;;;;;;4980498;28;20552;-87
2022/08/29 07:08:51;;;;;;;17.43;15.80;;;18.10;99.90;;;;;;4965693;28;20182;-86
2022/08/29 07:11:17;;;;;;;16.40;14.80;;;18.00;99.90;;;;;;4983973;28;20990;-86
2022/08/29 07:13:43;;;;;;;14.17;12.97;;;18.00;99.90;;;;;;4975877;28;20504;-87
2022/08/29 07:16:15;;;;;;;13.80;12.53;;;18.30;99.90;;;;;;4957034;28;20444;-87
2022/08/29 07:18:42;;;;;;;16.40;14.80;;;18.50;99.90;;;;;;4963797;28;20276;-86
2022/08/29 07:21:10;;;;;;;14.53;13.30;;;18.80;99.90;;;;;;4960768;28;20531;-86
2022/08/29 07:23:36;;;;;;;13.83;12.53;;;18.80;99.90;;;;;;4978883;28;21049;-87
2022/08/29 07:26:07;;;;;;;13.80;12.43;;;19.00;99.90;;;;;;4956971;28;20578;-86
2022/08/29 07:28:34;;;;;;;15.67;14.27;;;19.30;99.90;;;;;;4960425;28;20480;-87
2022/08/29 07:31:00;;;;;;;16.30;14.90;;;19.30;99.90;;;;;;4961670;28;20625;-86
2022/08/29 07:33:26;;;;;;;14.50;13.20;;;19.30;99.90;;;;;;4968545;28;20483;-86
2022/08/29 07:35:53;;;;;;;14.87;13.57;;;19.10;99.90;;;;;;4971718;28;20445;-87
2022/08/29 07:38:19;;;;;;;14.80;13.40;;;19.20;99.90;;;;;;4964943;28;20414;-87
2022/08/29 07:40:45;;;;;;;13.57;12.27;;;19.30;99.90;;;;;;4957448;28;20961;-87
2022/08/29 07:43:10;;;;;;;14.30;12.80;;;19.60;99.90;;;;;;4958134;28;20452;-88
2022/08/29 07:45:38;;;;;;;13.77;12.50;;;19.70;99.90;;;;;;4963813;28;20193;-87
2022/08/29 07:48:04;;;;;;;14.20;12.80;;;19.80;99.90;;;;;;4961513;28;20284;-87
2022/08/29 07:50:30;;;;;;;11.67;10.60;;;19.80;99.90;;;;;;4960978;28;20460;-87
2022/08/29 07:52:55;;;;;;;12.53;11.30;;;20.10;99.90;;;;;;4956334;28;20397;-87
2022/08/29 07:55:21;;;;;;;13.87;12.63;;;20.40;99.90;;;;;;4962576;28;20197;-86
2022/08/29 07:57:50;;;;;;;13.97;12.77;;;20.20;99.90;;;;;;4973826;28;20713;-87
2022/08/29 08:00:16;;;;;;;11.37;10.37;;;19.90;99.90;;;;;;4958137;28;20667;-87
2022/08/29 08:02:41;;;;;;;11.40;10.43;;;20.00;99.90;;;;;;4965863;28;20449;-87
2022/08/29 08:05:07;;;;;;;11.57;10.57;;;20.30;99.90;;;;;;4975367;28;20432;-87
2022/08/29 08:07:34;;;;;;;13.23;11.57;;;20.60;99.90;;;;;;4968079;28;20189;-87
2022/08/29 08:10:00;;;;;;;11.90;10.90;;;20.70;99.90;;;;;;4961830;28;20445;-87
2022/08/29 08:12:26;;;;;;;12.53;11.60;;;20.70;99.90;;;;;;4975413;28;20481;-87
2022/08/29 08:15:11;;;;;;;10.37;9.47;;;20.80;99.90;;;;;;4966752;28;20444;-87
2022/08/29 08:17:37;;;;;;;11.63;10.53;;;20.80;99.90;;;;;;4975021;28;20457;-87
2022/08/29 08:20:06;;;;;;;10.70;9.90;;;20.90;99.90;;;;;;4958058;28;20445;-87
2022/08/29 08:22:32;;;;;;;11.10;10.17;;;21.20;99.90;;;;;;4963546;28;20661;-87
2022/08/29 08:24:58;;;;;;;11.37;10.40;;;21.30;99.90;;;;;;4963995;28;20441;-87
2022/08/29 08:27:23;;;;;;;10.53;9.63;;;21.40;99.90;;;;;;4963684;28;20816;-87
2022/08/29 08:29:49;;;;;;;10.80;9.73;;;21.40;99.90;;;;;;4963482;28;20205;-87
2022/08/29 08:32:15;;;;;;;9.63;8.80;;;21.60;99.90;;;;;;4963038;28;20269;-87
2022/08/29 08:34:41;;;;;;;10.27;9.33;;;21.60;99.90;;;;;;4978949;28;20181;-87
2022/08/29 08:37:07;;;;;;;10.07;9.17;;;21.90;99.90;;;;;;4978831;28;20735;-87
2022/08/29 08:39:34;;;;;;;9.30;8.60;;;21.90;99.90;;;;;;4976602;28;20461;-87
2022/08/29 08:42:13;;;;;;;11.40;10.30;;;22.00;99.90;;;;;;4971500;28;20453;-87
2022/08/29 08:45:13;;;;;;;9.07;8.37;;;22.30;99.90;;;;;;4961536;28;20440;-86
2022/08/29 08:48:03;;;;;;;10.20;9.30;;;22.50;99.90;;;;;;4965354;28;20472;-86
2022/08/29 08:50:50;;;;;;;9.93;8.13;;;22.60;99.90;;;;;;4977495;28;20436;-87
2022/08/29 08:53:18;;;;;;;10.10;9.10;;;22.40;99.90;;;;;;4963767;28;20526;-87
2022/08/29 08:55:48;;;;;;;10.40;9.60;;;22.60;99.90;;;;;;4968071;28;20440;-87
2022/08/29 08:58:16;;;;;;;11.37;9.73;;;22.50;99.90;;;;;;4978522;28;20483;-87
2022/08/29 09:00:51;;;;;;;10.97;8.57;;;22.70;99.90;;;;;;4964936;28;20441;-87
2022/08/29 09:03:37;;;;;;;9.10;8.30;;;23.00;99.90;;;;;;4977758;28;20459;-87
2022/08/29 09:06:16;;;;;;;8.83;8.13;;;23.20;99.90;;;;;;4973722;28;20459;-87
2022/08/29 09:09:08;;;;;;;7.60;7.00;;;23.20;99.90;;;;;;4975677;28;20458;-87
2022/08/29 09:12:19;;;;;;;8.00;7.40;;;23.30;99.90;;;;;;4974383;28;21660;-87
2022/08/29 09:14:59;;;;;;;7.50;6.80;;;23.50;99.90;;;;;;5031036;28;20459;-87
2022/08/29 09:17:31;;;;;;;8.47;7.77;;;23.60;99.90;;;;;;4978848;28;20510;-87
2022/08/29 09:19:57;;;;;;;9.50;7.97;;;23.70;99.90;;;;;;4976857;28;20571;-88
2022/08/29 09:22:26;;;;;;;8.87;8.07;;;23.80;99.90;;;;;;4975843;28;20539;-87
2022/08/29 09:25:02;;;;;;;8.13;7.37;;;23.80;99.90;;;;;;4977923;28;20194;-87
2022/08/29 09:27:36;;;;;;;7.70;7.10;;;24.00;99.90;;;;;;4974183;28;20989;-88
2022/08/29 09:30:07;;;;;;;8.27;7.03;;;24.40;99.90;;;;;;4973503;28;20490;-87
2022/08/29 09:32:52;;;;;;;8.70;6.77;;;24.40;99.90;;;;;;4978632;28;20472;-87
2022/08/29 09:35:39;;;;;;;6.90;6.40;;;24.60;99.90;;;;;;4972350;28;20440;-86
2022/08/29 09:38:17;;;;;;;7.57;6.97;;;24.60;99.90;;;;;;4974083;28;21867;-87
2022/08/29 09:40:52;;;;;;;6.90;6.30;;;24.70;99.90;;;;;;4973013;28;20449;-88
2022/08/29 09:43:23;;;;;;;8.47;7.63;;;24.70;99.90;;;;;;4972304;28;20536;-88
2022/08/29 09:46:10;;;;;;;7.83;7.13;;;24.70;99.90;;;;;;4976661;28;20503;-87
2022/08/29 09:49:01;;;;;;;9.63;7.37;;;25.00;99.50;;;;;;4992896;28;20958;-87
2022/08/29 09:51:37;;;;;;;6.73;6.10;;;25.10;99.10;;;;;;4973174;28;20465;-87
2022/08/29 09:54:25;;;;;;;6.60;6.03;;;25.00;99.50;;;;;;4975792;28;21251;-88
2022/08/29 09:56:50;;;;;;;7.23;6.67;;;25.10;98.30;;;;;;4976853;28;20437;-88
2022/08/29 09:59:32;;;;;;;6.20;5.60;;;25.20;98.70;;;;;;4974476;28;20451;-88
2022/08/29 10:02:26;;;;;;;5.73;5.10;;;25.30;97.10;;;;;;4970638;28;20186;-87
2022/08/29 10:04:53;;;;;;;5.50;5.00;;;25.50;96.40;;;;;;4986440;28;20444;-86
2022/08/29 10:07:29;;;;;;;5.63;5.13;;;25.70;97.50;;;;;;4965938;28;21964;-87
2022/08/29 10:10:13;;;;;;;5.23;4.83;;;25.80;97.20;;;;;;4965092;28;20459;-87
2022/08/29 10:13:03;;;;;;;7.30;5.20;;;26.00;95.00;;;;;;4981255;28;20480;-86
2022/08/29 10:15:51;;;;;;;5.83;5.23;;;26.20;95.00;;;;;;4974665;28;20532;-87
2022/08/29 10:18:43;;;;;;;5.60;5.07;;;26.10;95.20;;;;;;4978903;28;20779;-87
2022/08/29 10:21:45;;;;;;;5.37;4.77;;;26.10;95.20;;;;;;4994661;28;20439;-86
2022/08/29 10:24:20;;;;;;;5.97;5.00;;;26.30;93.60;;;;;;4970099;28;20445;-86
2022/08/29 10:27:14;;;;;;;5.03;4.70;;;26.60;93.60;;;;;;4972199;28;20437;-87
2022/08/29 10:30:02;;;;;;;5.57;5.03;;;26.20;92.70;;;;;;4971975;28;20777;-86
2022/08/29 10:32:40;;;;;;;10.37;5.33;;;26.60;93.90;;;;;;4983751;28;20485;-85
2022/08/29 10:35:23;;;;;;;5.83;5.00;;;26.80;93.00;;;;;;5004779;28;22467;-86
2022/08/29 10:38:02;;;;;;;5.57;4.87;;;26.90;93.00;;;;;;4970078;28;20528;-87
2022/08/29 10:40:27;;;;;;;5.17;4.77;;;27.00;91.30;;;;;;4987129;28;20445;-87
2022/08/29 10:43:18;;;;;;;5.70;4.77;;;26.90;92.10;;;;;;4995189;28;20494;-87
2022/08/29 10:46:21;;;;;;;5.03;4.53;;;26.90;92.40;;;;;;4977564;28;20629;-86
2022/08/29 10:49:25;;;;;;;5.40;4.77;;;27.00;91.60;;;;;;4994743;28;20641;-86
2022/08/29 10:52:22;;;;;;;4.77;4.37;;;27.50;89.80;;;;;;4975395;28;20468;-87
2022/08/29 10:54:51;;;;;;;5.63;5.07;;;27.40;92.00;;;;;;5008932;28;20439;-86
2022/08/29 10:57:29;;;;;;;4.70;4.40;;;27.60;91.70;;;;;;4976753;28;20433;-86
2022/08/29 11:00:05;;;;;;;5.03;4.67;;;27.90;88.10;;;;;;4975670;28;20444;-89
2022/08/29 11:03:19;;;;;;;4.90;4.50;;;27.80;89.90;;;;;;4990611;28;20942;-92
2022/08/29 11:06:08;;;;;;;5.40;5.00;;;27.40;90.60;;;;;;4969664;28;20584;-92
2022/08/29 11:08:40;;;;;;;5.30;4.80;;;27.40;88.80;;;;;;4987652;28;20435;-89
2022/08/29 11:11:05;;;;;;;5.47;5.00;;;27.50;88.80;;;;;;4969398;28;20453;-89
2022/08/29 11:13:39;;;;;;;5.47;4.97;;;27.80;89.00;;;;;;4972376;28;20538;-90
2022/08/29 11:16:28;;;;;;;4.87;4.40;;;27.60;88.70;;;;;;4994581;28;20225;-90
2022/08/29 11:18:59;;;;;;;5.40;5.00;;;27.90;85.00;;;;;;4974192;28;20449;-89
2022/08/29 11:21:38;;;;;;;5.90;5.30;;;28.10;87.60;;;;;;4976542;28;20527;-89
2022/08/29 11:24:04;;;;;;;4.50;4.20;;;28.00;88.70;;;;;;4996159;28;20433;-89
2022/08/29 11:26:38;;;;;;;5.00;4.60;;;27.90;85.60;;;;;;4980695;28;20436;-88
2022/08/29 11:29:39;;;;;;;5.10;4.47;;;28.40;80.00;;;;;;4975985;28;20546;-90
2022/08/29 11:32:29;;;;;;;4.80;4.40;;;29.10;82.20;;;;;;4976808;28;20568;-89
2022/08/29 11:35:43;;;;;;;5.47;5.03;;;29.10;82.60;;;;;;4979389;28;20448;-89
2022/08/29 11:38:20;;;;;;;5.37;4.97;;;28.80;85.40;;;;;;4981962;28;20432;-89
2022/08/29 11:41:12;;;;;;;7.37;5.80;;;28.60;83.90;;;;;;4992444;28;20451;-90
2022/08/29 11:43:42;;;;;;;6.13;5.63;;;28.50;86.70;;;;;;4975501;28;21892;-90
2022/08/29 11:46:10;;;;;;;6.40;5.43;;;28.10;86.20;;;;;;4978930;28;20456;-90
2022/08/29 11:48:37;;;;;;;6.43;5.83;;;28.30;90.10;;;;;;4978676;28;20449;-88
2022/08/29 11:51:32;;;;;;;5.70;5.30;;;28.40;89.80;;;;;;4980021;28;20436;-87
2022/08/29 11:54:23;;;;;;;6.77;6.27;;;28.50;91.40;;;;;;4984944;28;21679;-87
2022/08/29 11:57:03;;;;;;;5.53;4.93;;;28.70;90.00;;;;;;4981157;28;20910;-88
2022/08/29 11:59:47;;;;;;;5.90;5.40;;;28.60;84.80;;;;;;4980606;28;20449;-87
2022/08/29 12:02:31;;;;;;;4.90;4.30;;;28.70;85.00;;;;;;4980502;28;20432;-88
2022/08/29 12:04:57;;;;;;;5.30;4.90;;;28.90;86.40;;;;;;4994562;28;22369;-89
2022/08/29 12:07:56;;;;;;;5.03;4.73;;;29.20;85.00;;;;;;4982941;28;20465;-89
2022/08/29 12:10:28;;;;;;;4.90;4.60;;;28.80;86.80;;;;;;4977586;28;20444;-89
2022/08/29 12:13:45;;;;;;;5.60;5.20;;;28.60;80.60;;;;;;4973577;28;21123;-88
2022/08/29 12:16:32;;;;;;;4.90;4.60;;;27.90;84.80;;;;;;4991449;28;20821;-90
2022/08/29 12:18:58;;;;;;;5.57;5.20;;;27.90;87.60;;;;;;4973945;28;20440;-89
2022/08/29 12:21:36;;;;;;;4.90;4.50;;;28.30;85.70;;;;;;4980741;28;20451;-89
2022/08/29 12:24:28;;;;;;;5.80;5.30;;;28.50;83.80;;;;;;4978628;28;20520;-89
2022/08/29 12:26:54;;;;;;;5.63;5.13;;;28.80;82.00;;;;;;4980664;28;20878;-89
2022/08/29 12:29:33;;;;;;;5.60;4.20;;;28.80;81.70;;;;;;4981020;28;20531;-89
2022/08/29 12:32:34;;;;;;;4.57;4.27;;;29.30;80.50;;;;;;4980816;28;20504;-89
2022/08/29 12:35:44;;;;;;;4.90;4.60;;;29.60;81.20;;;;;;4980821;28;20448;-89
2022/08/29 12:38:43;;;;;;;4.67;4.33;;;29.50;79.30;;;;;;4979836;28;21094;-89
2022/08/29 12:41:37;;;;;;;5.07;4.50;;;29.30;75.70;;;;;;4972236;28;20527;-88
2022/08/29 12:44:11;;;;;;;6.43;4.83;;;29.10;71.90;;;;;;4980376;28;20449;-88
2022/08/29 12:46:46;;;;;;;5.33;4.53;;;28.70;79.70;;;;;;4995531;28;20487;-88
2022/08/29 12:49:29;;;;;;;4.87;4.47;;;28.70;73.60;;;;;;4983584;28;20489;-88
2022/08/29 12:52:04;;;;;;;4.60;4.20;;;28.70;75.70;;;;;;4983292;28;20524;-88
2022/08/29 12:54:42;;;;;;;4.60;3.90;;;29.20;76.30;;;;;;5014871;28;20487;-89
2022/08/29 12:57:34;;;;;;;4.40;3.83;;;29.20;76.30;;;;;;4981292;28;20538;-89
2022/08/29 13:00:04;;;;;;;5.73;5.10;;;29.40;76.10;;;;;;4983015;28;20444;-89
2022/08/29 13:02:35;;;;;;;5.07;4.67;;;29.50;70.70;;;;;;4975691;28;21010;-90
2022/08/29 13:05:03;;;;;;;4.80;4.50;;;28.80;72.50;;;;;;4979314;28;20441;-89